Time;durP1;ratioP1;P1;durP2;ratioP2;P2;SDS_P1;SDS_P2;PMS_P1;PMS_P2;Temp;Humidity;BMP_temperature;BMP_pressure;BME280_temperature;BME280_humidity;BME280_pressure;Samples;Min_cycle;Max_cycle;Signal;HPM_P1;HPM_P2
2022/03/10 00:00:54;;;;;;;;;;;;;;;0.34;90.66;66819.91;5004848;28;19999;-82
2022/03/10 00:03:20;;;;;;;;;;;;;;;0.30;91.13;66815.97;5006805;28;19945;-85
2022/03/10 00:05:46;;;;;;;;;;;;;;;0.18;91.19;66805.66;4992340;28;19972;-85
2022/03/10 00:08:12;;;;;;;;;;;;;;;0.18;91.29;66805.09;5013774;28;19918;-87
2022/03/10 00:10:37;;;;;;;;;;;;;;;0.17;91.74;66804.53;5036234;28;19913;-84
2022/03/10 00:13:03;;;;;;;;;;;;;;;0.19;91.96;66804.16;5009723;28;19979;-82
2022/03/10 00:15:30;;;;;;;;;;;;;;;0.29;91.65;66814.84;4990385;28;19969;-88
2022/03/10 00:17:55;;;;;;;;;;;;;;;0.25;90.49;66812.41;5026155;28;19917;-87
2022/03/10 00:20:26;;;;;;;;;;;;;;;0.26;91.88;66811.47;5025948;28;20012;-82
2022/03/10 00:22:57;;;;;;;;;;;;;;;0.33;91.86;66818.78;5019435;28;19922;-81
2022/03/10 00:25:24;;;;;;;;;;;;;;;0.33;91.49;66819.34;5023417;28;19928;-83
2022/03/10 00:27:52;;;;;;;;;;;;;;;0.31;89.85;66819.16;5017682;28;19968;-89
2022/03/10 00:30:20;;;;;;;;;;;;;;;0.44;90.24;66831.72;5009504;28;19940;-82
2022/03/10 00:32:47;;;;;;;;;;;;;;;0.49;88.44;66839.41;5013523;28;20388;-89
2022/03/10 00:35:18;;;;;;;;;;;;;;;0.59;89.69;66853.25;5006508;28;19917;-87
2022/03/10 00:37:45;;;;;;;;;;;;;;;0.59;87.25;66844.84;5002373;28;19918;-88
2022/03/10 00:40:12;;;;;;;;;;;;;;;0.61;86.65;66852.91;5039203;28;20361;-84
2022/03/10 00:42:44;;;;;;;;;;;;;;;0.71;85.64;66863.03;5037208;28;19918;-88
2022/03/10 00:45:09;;;;;;;;;;;;;;;0.86;84.28;66879.91;5009905;28;19936;-81
2022/03/10 00:47:35;;;;;;;;;;;;;;;0.97;85.58;66891.72;5006670;28;19925;-86
2022/03/10 00:50:05;;;;;;;;;;;;;;;1.00;82.73;66895.09;5025325;28;20290;-88
2022/03/10 00:52:44;;;;;;;;;;;;;;;1.20;83.79;66919.66;4996757;28;19960;-84
2022/03/10 00:55:11;;;;;;;;;;;;;;;1.31;82.19;66932.03;5010442;28;19949;-83
2022/03/10 00:57:37;;;;;;;;;;;;;;;1.62;77.28;66968.47;5009735;28;19925;-86
2022/03/10 01:00:07;;;;;;;;;;;;;;;1.77;78.55;66978.03;5000150;28;20299;-81
2022/03/10 01:02:34;;;;;;;;;;;;;;;1.83;77.22;66986.84;5012376;28;19921;-87
2022/03/10 01:05:02;;;;;;;;;;;;;;;1.92;76.79;66991.75;5000129;28;20369;-83
2022/03/10 01:07:34;;;;;;;;;;;;;;;2.01;75.79;67001.31;5041763;28;19921;-88
2022/03/10 01:10:01;;;;;;;;;;;;;;;2.19;73.98;67023.66;5005414;28;19918;-86
2022/03/10 01:12:27;;;;;;;;;;;;;;;2.17;74.85;67018.78;5025231;28;20399;-85
2022/03/10 01:14:54;;;;;;;;;;;;;;;2.20;73.51;67027.41;5008400;28;19961;-90
2022/03/10 01:17:22;;;;;;;;;;;;;;;2.31;72.30;67037.19;5025520;28;19917;-83
2022/03/10 01:19:48;;;;;;;;;;;;;;;2.19;73.46;67023.66;5007336;28;19984;-85
2022/03/10 01:22:13;;;;;;;;;;;;;;;2.11;74.65;67012.59;5012506;28;20382;-83
2022/03/10 01:24:41;;;;;;;;;;;;;;;2.01;74.38;67001.91;5014689;28;19973;-89
2022/03/10 01:27:09;;;;;;;;;;;;;;;2.03;74.39;67009.38;4993971;28;19917;-90
2022/03/10 01:29:35;;;;;;;;;;;;;;;1.97;73.16;66997.38;5002593;28;19948;-83
2022/03/10 01:32:00;;;;;;;;;;;;;;;2.10;74.38;67014.09;5009958;28;19913;-85
2022/03/10 01:34:26;;;;;;;;;;;;;;;2.14;72.01;67015.97;5008740;28;19924;-83
2022/03/10 01:36:52;;;;;;;;;;;;;;;2.10;75.06;67014.09;5010711;28;19917;-89
2022/03/10 01:39:18;;;;;;;;;;;;;;;2.17;74.66;67018.78;4998529;28;19917;-84
2022/03/10 01:41:45;;;;;;;;;;;;;;;2.14;73.60;67015.97;5009401;28;19944;-90
2022/03/10 01:44:12;;;;;;;;;;;;;;;2.10;74.70;67011.47;5008395;28;19913;-83
2022/03/10 01:46:39;;;;;;;;;;;;;;;2.05;72.98;67011.06;5042628;28;19925;-88
2022/03/10 01:49:05;;;;;;;;;;;;;;;2.04;73.78;67007.31;5009033;28;20015;-85
2022/03/10 01:51:38;;;;;;;;;;;;;;;2.01;74.75;67007.13;5011160;28;19917;-83
2022/03/10 01:54:04;;;;;;;;;;;;;;;2.03;73.13;67006.19;5038978;28;19922;-88
2022/03/10 01:56:31;;;;;;;;;;;;;;;2.08;74.52;67013.91;5024420;28;19971;-82
2022/03/10 01:58:56;;;;;;;;;;;;;;;2.03;74.29;67009.38;5010450;28;19969;-85
2022/03/10 02:01:24;;;;;;;;;;;;;;;2.09;74.99;67012.94;5044866;28;20247;-85
2022/03/10 02:03:53;;;;;;;;;;;;;;;2.01;73.67;67003.94;5020056;28;19925;-88
2022/03/10 02:06:18;;;;;;;;;;;;;;;2.01;73.42;67001.91;5027308;28;20378;-91
2022/03/10 02:11:28;;;;;;;;;;;;;;;1.85;73.45;66986.50;5009942;28;19941;-86
2022/03/10 02:13:53;;;;;;;;;;;;;;;1.96;74.71;66996.25;5022766;28;19917;-81
2022/03/10 02:19:06;;;;;;;;;;;;;;;2.10;72.97;67013.50;5010647;28;19924;-81
2022/03/10 02:21:31;;;;;;;;;;;;;;;2.09;73.21;67009.75;5002144;28;19937;-82
2022/03/10 02:23:56;;;;;;;;;;;;;;;2.11;73.31;67012.59;5022491;28;20370;-81
2022/03/10 02:26:22;;;;;;;;;;;;;;;2.08;72.23;67013.91;5017903;28;20294;-81
2022/03/10 02:28:48;;;;;;;;;;;;;;;2.12;72.92;67016.31;5042460;28;19917;-87
2022/03/10 02:31:13;;;;;;;;;;;;;;;;;;5012981;28;19917;-86
2022/03/10 02:33:39;;;;;;;;;;;;;;;;;;5008858;28;19921;-89
2022/03/10 02:36:04;;;;;;;;;;;;;;;2.14;71.42;67021.22;5019138;28;19913;-84
2022/03/10 02:38:30;;;;;;;;;;;;;;;2.15;69.41;67019.16;5001855;28;19913;-86
2022/03/10 02:40:55;;;;;;;;;;;;;;;2.19;72.25;67023.66;4987842;28;19913;-81
2022/03/10 02:43:21;;;;;;;;;;;;;;;2.18;71.20;67020.47;5021933;28;19921;-88
2022/03/10 02:45:46;;;;;;;;;;;;;;;2.23;71.37;67025.53;5013613;28;19969;-88
2022/03/10 02:48:12;;;;;;;;;;;;;;;2.20;69.33;67027.41;5033574;28;20260;-86
2022/03/10 02:50:38;;;;;;;;;;;;;;;2.17;70.54;67019.34;5002975;28;19913;-86
2022/03/10 02:53:05;;;;;;;;;;;;;;;2.15;67.08;67019.72;5008578;28;19918;-85
2022/03/10 02:55:30;;;;;;;;;;;;;;;2.13;70.84;67014.25;5025623;28;19914;-82
2022/03/10 02:57:55;;;;;;;;;;;;;;;2.16;70.80;67020.28;5003701;28;19925;-87
2022/03/10 03:00:20;;;;;;;;;;;;;;;2.23;69.57;67028.72;5001970;28;20412;-87
2022/03/10 03:02:46;;;;;;;;;;;;;;;2.33;70.74;67039.44;5024906;28;19919;-86
2022/03/10 03:05:12;;;;;;;;;;;;;;;2.37;69.71;67040.75;5011510;28;19929;-87
2022/03/10 03:07:38;;;;;;;;;;;;;;;2.36;69.60;67042.81;5002968;28;19919;-88
2022/03/10 03:10:03;;;;;;;;;;;;;;;2.40;69.37;67044.69;4997287;28;20005;-87
2022/03/10 03:12:29;;;;;;;;;;;;;;;2.43;70.45;67050.13;5014575;28;19947;-85
2022/03/10 03:14:54;;;;;;;;;;;;;;;2.38;68.70;67045.06;4995531;28;20424;-87
2022/03/10 03:17:19;;;;;;;;;;;;;;;2.39;69.72;67043.00;5029579;28;19936;-91
2022/03/10 03:19:45;;;;;;;;;;;;;;;2.33;69.09;67042.06;5015312;28;19928;-82
2022/03/10 03:22:10;;;;;;;;;;;;;;;2.32;69.00;67035.13;4994796;28;19953;-87
2022/03/10 03:24:35;;;;;;;;;;;;;;;;;;5007888;28;19913;-87
2022/03/10 03:27:01;;;;;;;;;;;;;;;2.28;69.27;67035.88;5014106;28;19924;-83
2022/03/10 03:29:26;;;;;;;;;;;;;;;2.29;68.36;67031.75;4989985;28;19913;-87
2022/03/10 03:31:51;;;;;;;;;;;;;;;2.35;69.98;67044.31;5012076;28;19913;-91
2022/03/10 03:34:16;;;;;;;;;;;;;;;2.32;68.69;67035.13;5006407;28;20012;-88
2022/03/10 03:36:43;;;;;;;;;;;;;;;2.28;70.12;67033.81;5013593;28;19994;-84
2022/03/10 03:39:08;;;;;;;;;;;;;;;;;;5009026;28;19917;-84
2022/03/10 03:41:33;;;;;;;;;;;;;;;2.20;69.75;67025.34;5043668;28;19940;-87
2022/03/10 03:43:59;;;;;;;;;;;;;;;2.19;70.54;67026.28;5018290;28;19913;-82
2022/03/10 03:46:24;;;;;;;;;;;;;;;2.18;68.17;67025.72;5030644;28;19918;-88
2022/03/10 03:48:50;;;;;;;;;;;;;;;2.15;69.35;67017.09;5037971;28;19924;-86
2022/03/10 03:51:15;;;;;;;;;;;;;;;2.12;67.75;67015.78;5009893;28;20501;-84
2022/03/10 03:53:40;;;;;;;;;;;;;;;2.06;71.33;67006.38;5040697;28;20354;-87
2022/03/10 03:56:05;;;;;;;;;;;;;;;2.08;70.95;67017.09;5005834;28;20393;-88
2022/03/10 03:58:31;;;;;;;;;;;;;;;2.03;70.14;67006.75;5007351;28;20282;-90
2022/03/10 04:00:56;;;;;;;;;;;;;;;2.05;70.12;67010.53;5001637;28;19914;-91
2022/03/10 04:03:21;;;;;;;;;;;;;;;2.03;68.78;67009.38;5009556;28;19968;-86
2022/03/10 04:05:47;;;;;;;;;;;;;;;2.03;69.86;67012.00;5049693;28;19917;-84
2022/03/10 04:08:12;;;;;;;;;;;;;;;2.02;68.42;67002.44;5026070;28;19949;-85
2022/03/10 04:10:38;;;;;;;;;;;;;;;2.00;68.98;67005.44;5002847;28;19945;-82
2022/03/10 04:13:05;;;;;;;;;;;;;;;2.02;70.72;67008.25;5032160;28;19914;-81
2022/03/10 04:15:31;;;;;;;;;;;;;;;1.98;67.83;67003.75;5016034;28;19959;-86
2022/03/10 04:17:57;;;;;;;;;;;;;;;1.96;69.55;67000.94;5019333;28;19913;-90
2022/03/10 04:20:23;;;;;;;;;;;;;;;1.96;69.99;67001.50;4990157;28;19926;-88
2022/03/10 04:22:50;;;;;;;;;;;;;;;1.96;70.51;66998.88;5007704;28;20007;-83
2022/03/10 04:25:16;;;;;;;;;;;;;;;1.90;68.99;66989.50;5021939;28;19925;-89
2022/03/10 04:27:42;;;;;;;;;;;;;;;1.93;70.91;66995.50;4984841;28;19917;-88
2022/03/10 04:30:10;;;;;;;;;;;;;;;1.92;69.83;66993.81;5002899;28;19960;-85
2022/03/10 04:32:43;;;;;;;;;;;;;;;1.89;70.83;66993.06;5011289;28;19929;-87
2022/03/10 04:35:09;;;;;;;;;;;;;;;1.87;70.07;66993.41;5003441;28;20401;-87
2022/03/10 04:37:36;;;;;;;;;;;;;;;1.82;70.23;66983.09;5002406;28;19918;-84
2022/03/10 04:40:01;;;;;;;;;;;;;;;1.74;70.99;66977.28;5018930;28;20358;-83
2022/03/10 04:42:28;;;;;;;;;;;;;;;1.83;70.52;66983.66;5007362;28;20495;-82
2022/03/10 04:44:53;;;;;;;;;;;;;;;1.90;69.70;66989.50;5023657;28;19923;-92
2022/03/10 04:47:19;;;;;;;;;;;;;;;1.90;69.56;66988.91;5009484;28;20329;-84
2022/03/10 04:49:45;;;;;;;;;;;;;;;1.90;70.15;66991.53;5021404;28;20362;-92
2022/03/10 04:52:11;;;;;;;;;;;;;;;1.90;70.19;66991.53;5022909;28;19924;-87
2022/03/10 04:54:43;;;;;;;;;;;;;;;1.91;70.35;66993.25;5027403;28;20232;-89
2022/03/10 04:57:08;;;;;;;;;;;;;;;;;;5021528;28;19944;-84
2022/03/10 04:59:34;;;;;;;;;;;;;;;1.87;69.36;66985.53;5038447;28;19921;-86
2022/03/10 05:01:59;;;;;;;;;;;;;;;1.87;69.38;66988.75;4995116;28;20398;-85
2022/03/10 05:04:24;;;;;;;;;;;;;;;1.86;69.93;66984.97;5041457;28;20005;-81
2022/03/10 05:06:50;;;;;;;;;;;;;;;1.89;69.13;66990.44;5023949;28;19924;-81
2022/03/10 05:09:15;;;;;;;;;;;;;;;1.84;69.74;66985.34;5028442;28;20297;-81
2022/03/10 05:11:40;;;;;;;;;;;;;;;1.87;69.34;66991.38;5023005;28;19913;-81
2022/03/10 05:14:06;;;;;;;;;;;;;;;1.87;70.08;66985.53;5013972;28;19936;-81
2022/03/10 05:16:39;;;;;;;;;;;;;;;1.81;70.11;66981.97;5015354;28;19917;-84
2022/03/10 05:19:04;;;;;;;;;;;;;;;1.80;69.40;66978.22;5045004;28;19945;-81
2022/03/10 05:21:30;;;;;;;;;;;;;;;1.84;69.85;66987.97;5047190;28;19918;-86
2022/03/10 05:23:57;;;;;;;;;;;;;;;1.77;69.49;66980.66;5012167;28;19917;-87
2022/03/10 05:26:23;;;;;;;;;;;;;;;1.75;70.11;66975.78;4997273;28;19926;-86
2022/03/10 05:28:48;;;;;;;;;;;;;;;1.78;70.99;66981.78;5007777;28;19968;-84
2022/03/10 05:31:14;;;;;;;;;;;;;;;1.71;69.60;66968.09;5024909;28;19956;-88
2022/03/10 05:33:41;;;;;;;;;;;;;;;1.70;71.07;66972.22;5038672;28;19987;-86
2022/03/10 05:36:07;;;;;;;;;;;;;;;1.61;70.78;66960.00;5004142;28;19913;-87
2022/03/10 05:38:32;;;;;;;;;;;;;;;1.52;72.14;66950.44;5009185;28;19920;-87
2022/03/10 05:41:01;;;;;;;;;;;;;;;1.51;71.62;66951.94;5006437;28;20541;-85
2022/03/10 05:43:34;;;;;;;;;;;;;;;1.49;71.71;66946.50;5024172;28;19921;-88
2022/03/10 05:46:00;;;;;;;;;;;;;;;1.38;69.47;66942.53;5009826;28;19926;-85
2022/03/10 05:48:25;;;;;;;;;;;;;;;1.44;72.01;66946.13;4997669;28;19921;-85
2022/03/10 05:50:50;;;;;;;;;;;;;;;1.44;72.16;66944.06;4998260;28;19944;-89
2022/03/10 05:53:17;;;;;;;;;;;;;;;1.46;73.03;66943.69;5041257;28;19917;-89
2022/03/10 05:55:42;;;;;;;;;;;;;;;1.41;72.49;66938.06;5003869;28;19913;-91
2022/03/10 05:58:08;;;;;;;;;;;;;;;1.44;73.01;66943.50;5024212;28;19944;-90
2022/03/10 06:00:35;;;;;;;;;;;;;;;1.43;73.00;66940.31;4995317;28;20026;-88
2022/03/10 06:03:03;;;;;;;;;;;;;;;1.43;73.43;66939.75;5009770;28;20410;-87
2022/03/10 06:05:29;;;;;;;;;;;;;;;1.51;73.26;66946.69;5000505;28;19932;-84
2022/03/10 06:07:55;;;;;;;;;;;;;;;1.55;72.69;66955.88;5000677;28;19917;-85
2022/03/10 06:10:20;;;;;;;;;;;;;;;;;;5027247;28;20004;-88
2022/03/10 06:12:46;;;;;;;;;;;;;;;1.55;72.20;66955.88;5018016;28;20007;-85
2022/03/10 06:15:13;;;;;;;;;;;;;;;1.52;71.56;66947.81;5002457;28;20370;-87
2022/03/10 06:17:39;;;;;;;;;;;;;;;1.66;72.03;66967.72;5009308;28;19921;-88
2022/03/10 06:20:05;;;;;;;;;;;;;;;1.70;70.81;66972.22;4994066;28;19948;-84
2022/03/10 06:22:32;;;;;;;;;;;;;;;1.77;69.70;66980.66;5002268;28;20523;-87
2022/03/10 06:25:00;;;;;;;;;;;;;;;1.84;71.50;66982.72;5001212;28;19921;-86
2022/03/10 06:27:25;;;;;;;;;;;;;;;1.87;68.79;66996.63;5003520;28;20737;-85
2022/03/10 06:29:51;;;;;;;;;;;;;;;1.90;69.12;66991.53;5003471;28;19957;-84
2022/03/10 06:32:17;;;;;;;;;;;;;;;2.00;70.20;67005.44;4996052;28;19917;-85
2022/03/10 06:34:43;;;;;;;;;;;;;;;2.06;69.33;67014.81;5006972;28;19968;-86
2022/03/10 06:37:09;;;;;;;;;;;;;;;2.08;68.80;67013.91;5012105;28;19961;-87
2022/03/10 06:39:40;;;;;;;;;;;;;;;2.09;69.26;67012.38;5014427;28;20011;-91
2022/03/10 06:42:09;;;;;;;;;;;;;;;2.18;70.14;67019.91;5008781;28;19945;-86
2022/03/10 06:44:37;;;;;;;;;;;;;;;2.22;69.12;67029.66;5010731;28;19921;-82
2022/03/10 06:47:06;;;;;;;;;;;;;;;2.27;68.82;67032.66;5014751;28;19971;-82
2022/03/10 06:49:32;;;;;;;;;;;;;;;2.32;68.97;67040.38;5016225;28;20013;-82
2022/03/10 06:52:00;;;;;;;;;;;;;;;2.33;69.91;67042.06;5015462;28;19944;-89
2022/03/10 06:54:27;;;;;;;;;;;;;;;2.41;68.76;67045.25;5026215;28;19924;-86
2022/03/10 06:56:54;;;;;;;;;;;;;;;2.47;67.57;67055.22;5009954;28;19939;-88
2022/03/10 06:59:19;;;;;;;;;;;;;;;2.55;68.38;67060.47;5009104;28;19917;-85
2022/03/10 07:01:45;;;;;;;;;;;;;;;2.60;68.67;67068.75;5010375;28;19923;-89
2022/03/10 07:04:13;;;;;;;;;;;;;;;2.62;69.00;67068.94;5008603;28;19995;-86
2022/03/10 07:06:45;;;;;;;;;;;;;;;2.78;67.32;67091.09;5020129;28;19918;-88
2022/03/10 07:09:11;;;;;;;;;;;;;;;2.84;66.97;67095.22;5034996;28;20281;-84
2022/03/10 07:11:36;;;;;;;;;;;;;;;2.96;64.79;67108.19;5003997;28;20449;-86
2022/03/10 07:14:02;;;;;;;;;;;;;;;3.04;67.07;67119.84;4993951;28;20085;-87
2022/03/10 07:16:27;;;;;;;;;;;;;;;3.13;66.20;67127.34;5003117;28;19917;-90
2022/03/10 07:18:53;;;;;;;;;;;;;;;3.25;65.16;67138.25;5005134;28;19921;-84
2022/03/10 07:21:18;;;;;;;;;;;;;;;3.38;63.66;67152.34;5016554;28;19914;-87
2022/03/10 07:23:44;;;;;;;;;;;;;;;3.45;64.68;67162.88;5006265;28;19929;-88
2022/03/10 07:26:10;;;;;;;;;;;;;;;3.48;64.55;67165.69;5005071;28;19972;-89
2022/03/10 07:28:35;;;;;;;;;;;;;;;3.66;64.01;67185.44;5003847;28;19924;-89
2022/03/10 07:31:01;;;;;;;;;;;;;;;3.71;63.62;67191.66;5010393;28;19913;-88
2022/03/10 07:33:26;;;;;;;;;;;;;;;3.78;63.84;67199.53;5009722;28;20374;-88
2022/03/10 07:35:51;;;;;;;;;;;;;;;3.88;61.16;67210.25;5041373;28;19921;-85
2022/03/10 07:38:17;;;;;;;;;;;;;;;3.97;62.46;67220.44;5006588;28;19944;-87
2022/03/10 07:40:42;;;;;;;;;;;;;;;4.10;61.18;67237.16;5001932;28;19921;-83
2022/03/10 07:43:08;;;;;;;;;;;;;;;4.23;61.23;67246.00;5025168;28;20418;-85
2022/03/10 07:45:33;;;;;;;;;;;;;;;4.25;60.56;67248.25;5009706;28;19928;-84
2022/03/10 07:47:58;;;;;;;;;;;;;;;;;;5006895;28;19917;-88
2022/03/10 07:50:23;;;;;;;;;;;;;;;;;;5043752;28;19924;-87
2022/03/10 07:52:49;;;;;;;;;;;;;;;4.49;61.69;67275.34;5038518;28;20004;-87
2022/03/10 07:55:14;;;;;;;;;;;;;;;4.57;59.83;67285.88;4995179;28;19944;-85
2022/03/10 07:57:40;;;;;;;;;;;;;;;4.59;60.19;67288.16;5004857;28;19913;-89
2022/03/10 08:00:06;;;;;;;;;;;;;;;;;;5036212;28;20324;-86
2022/03/10 08:02:31;;;;;;;;;;;;;;;4.75;60.00;67306.22;5001223;28;19913;-85
2022/03/10 08:04:56;;;;;;;;;;;;;;;4.78;59.86;67312.25;4994774;28;19970;-87
2022/03/10 08:07:22;;;;;;;;;;;;;;;4.83;60.41;67315.22;5009077;28;19921;-86
2022/03/10 08:09:47;;;;;;;;;;;;;;;4.97;59.41;67327.84;4988049;28;20004;-84
2022/03/10 08:12:12;;;;;;;;;;;;;;;5.06;58.41;67338.00;5031965;28;20370;-86
2022/03/10 08:14:38;;;;;;;;;;;;;;;5.19;58.70;67355.34;5036142;28;19996;-87
2022/03/10 08:17:03;;;;;;;;;;;;;;;5.23;58.86;67356.09;4995975;28;19924;-87
2022/03/10 08:19:28;;;;;;;;;;;;;;;5.27;58.50;67363.81;5006614;28;19920;-87
2022/03/10 08:21:53;;;;;;;;;;;;;;;5.38;57.14;67378.31;5005492;28;19920;-85
2022/03/10 08:24:19;;;;;;;;;;;;;;;5.52;57.59;67388.28;4998601;28;19984;-85
2022/03/10 08:26:44;;;;;;;;;;;;;;;5.61;57.48;67398.44;5001157;28;19917;-88
2022/03/10 08:29:09;;;;;;;;;;;;;;;5.64;58.71;67402.41;4991309;28;19917;-86
2022/03/10 08:31:34;;;;;;;;;;;;;;;5.77;56.25;67418.63;4989603;28;20004;-87
2022/03/10 08:34:00;;;;;;;;;;;;;;;5.84;58.06;67426.53;5024769;28;20000;-86
2022/03/10 08:36:25;;;;;;;;;;;;;;;6.05;58.08;67447.66;5002048;28;19940;-85
2022/03/10 08:38:51;;;;;;;;;;;;;;;6.22;56.44;67465.75;5021169;28;19952;-85
2022/03/10 08:41:16;;;;;;;;;;;;;;;6.39;55.79;67484.97;4993578;28;20351;-87
2022/03/10 08:43:41;;;;;;;;;;;;;;;6.46;55.83;67492.88;4998540;28;19964;-86
2022/03/10 08:46:06;;;;;;;;;;;;;;;6.52;56.11;67502.31;5005983;28;20158;-86
2022/03/10 08:48:32;;;;;;;;;;;;;;;;;;5007793;28;19917;-86
2022/03/10 08:51:06;;;;;;;;;;;;;;;6.72;55.69;67521.72;5033312;28;19914;-88
2022/03/10 08:53:34;;;;;;;;;;;;;;;6.93;55.24;67544.91;5012857;28;19913;-88
2022/03/10 08:55:59;;;;;;;;;;;;;;;7.12;53.89;67565.28;5006067;28;19913;-86
2022/03/10 08:58:25;;;;;;;;;;;;;;;7.22;53.14;67576.56;5003244;28;19913;-85
2022/03/10 09:00:50;;;;;;;;;;;;;;;;;;5044160;28;20390;-86
2022/03/10 09:03:15;;;;;;;;;;;;;;;7.37;54.11;67596.22;5017611;28;20378;-87
2022/03/10 09:05:42;;;;;;;;;;;;;;;7.39;54.19;67590.53;5017190;28;19918;-87
2022/03/10 09:08:07;;;;;;;;;;;;;;;7.55;53.25;67615.47;5021041;28;19937;-86
2022/03/10 09:10:32;;;;;;;;;;;;;;;;;;5036341;28;20370;-85
2022/03/10 09:12:58;;;;;;;;;;;;;;;7.90;52.21;67651.84;5008819;28;19924;-88
2022/03/10 09:15:26;;;;;;;;;;;;;;;7.91;51.60;67656.22;5000373;28;19984;-88
2022/03/10 09:17:51;;;;;;;;;;;;;;;;;;5010623;28;19918;-87
2022/03/10 09:20:16;;;;;;;;;;;;;;;;;;5012635;28;19964;-88
2022/03/10 09:22:41;;;;;;;;;;;;;;;;;;4999456;28;19967;-89
2022/03/10 09:25:08;;;;;;;;;;;;;;;8.24;51.68;67692.44;5003113;28;19914;-86
2022/03/10 09:27:37;;;;;;;;;;;;;;;8.41;51.80;67713.81;5034518;28;20011;-88
2022/03/10 09:30:02;;;;;;;;;;;;;;;;;;4994801;28;19971;-88
2022/03/10 09:32:27;;;;;;;;;;;;;;;;;;5013098;28;19918;-86
2022/03/10 09:34:52;;;;;;;;;;;;;;;8.64;51.20;67728.13;4999095;28;19983;-88
2022/03/10 09:37:18;;;;;;;;;;;;;;;8.71;51.10;67736.06;5005145;28;20414;-88
2022/03/10 09:39:43;;;;;;;;;;;;;;;;;;4991430;28;19917;-84
2022/03/10 09:42:08;;;;;;;;;;;;;;;;;;5006674;28;19924;-85
2022/03/10 09:44:35;;;;;;;;;;;;;;;8.96;48.68;67772.34;5008029;28;19920;-86
2022/03/10 09:47:03;;;;;;;;;;;;;;;;;;5009379;28;20408;-87
2022/03/10 09:49:28;;;;;;;;;;;;;;;9.17;50.38;67795.00;5038224;28;20437;-85
2022/03/10 09:51:54;;;;;;;;;;;;;;;9.35;48.63;67812.78;5008418;28;19922;-85
2022/03/10 09:54:23;;;;;;;;;;;;;;;9.49;48.08;67830.72;5005793;28;20378;-86
2022/03/10 09:56:48;;;;;;;;;;;;;;;;;;5000544;28;19924;-86
2022/03/10 09:59:13;;;;;;;;;;;;;;;;;;5033655;28;19925;-88
2022/03/10 10:01:39;;;;;;;;;;;;;;;;;;5027050;28;20024;-86
2022/03/10 10:04:06;;;;;;;;;;;;;;;9.74;48.67;67855.28;5002573;28;19932;-86
2022/03/10 10:06:52;;;;;;;;;;;;;;;9.82;46.51;67864.38;4992870;28;19927;-88
2022/03/10 10:09:17;;;;;;;;;;;;;;;;;;5015029;28;19918;-87
2022/03/10 10:11:43;;;;;;;;;;;;;;;9.98;47.15;67882.50;5028511;28;19917;-86
2022/03/10 10:14:08;;;;;;;;;;;;;;;10.21;46.79;67907.47;4975874;28;20012;-86
2022/03/10 10:16:45;;;;;;;;;;;;;;;10.33;45.94;67916.34;5003490;28;19917;-86
2022/03/10 10:19:16;;;;;;;;;;;;;;;10.36;46.37;67924.50;5040544;28;19922;-86
2022/03/10 10:21:41;;;;;;;;;;;;;;;;;;5005290;28;19918;-88
2022/03/10 10:24:15;;;;;;;;;;;;;;;10.62;45.91;67948.13;4998803;28;19959;-88
2022/03/10 10:26:40;;;;;;;;;;;;;;;;;;5011755;28;19967;-87
2022/03/10 10:29:05;;;;;;;;;;;;;;;10.78;45.45;67965.69;5014718;28;19917;-87
2022/03/10 10:31:36;;;;;;;;;;;;;;;10.96;44.76;67986.16;5022437;28;20000;-88
2022/03/10 10:34:03;;;;;;;;;;;;;;;11.04;44.62;67999.97;5035378;28;20366;-89
2022/03/10 10:36:28;;;;;;;;;;;;;;;;;;5025011;28;19913;-87
2022/03/10 10:38:55;;;;;;;;;;;;;;;11.18;44.47;68015.31;5042736;28;20333;-88
2022/03/10 10:41:20;;;;;;;;;;;;;;;;;;4990308;28;20291;-89
2022/03/10 10:43:47;;;;;;;;;;;;;;;11.34;44.98;68028.16;5000707;28;19914;-88
2022/03/10 10:46:22;;;;;;;;;;;;;;;11.56;44.03;68057.31;5005946;28;19918;-90
2022/03/10 10:48:47;;;;;;;;;;;;;;;;;;5005980;28;20306;-90
2022/03/10 10:51:12;;;;;;;;;;;;;;;;;;5038893;28;19921;-87
2022/03/10 10:53:39;;;;;;;;;;;;;;;;;;4997815;28;20440;-87
2022/03/10 10:56:04;;;;;;;;;;;;;;;;;;5006702;28;19914;-87
2022/03/10 10:58:30;;;;;;;;;;;;;;;11.94;44.70;68100.50;5007473;28;19943;-86
2022/03/10 11:00:57;;;;;;;;;;;;;;;12.05;44.74;68106.53;5008850;28;19946;-87
2022/03/10 11:03:22;;;;;;;;;;;;;;;;;;5018017;28;19922;-88
2022/03/10 11:05:50;;;;;;;;;;;;;;;;;;5039595;28;20397;-86
2022/03/10 11:08:17;;;;;;;;;;;;;;;12.42;43.45;68148.00;5009422;28;20059;-86
2022/03/10 11:10:42;;;;;;;;;;;;;;;12.39;41.09;68145.16;5002333;28;20377;-85
2022/03/10 11:13:07;;;;;;;;;;;;;;;;;;4992285;28;19977;-86
2022/03/10 11:15:32;;;;;;;;;;;;;;;12.31;41.43;68141.41;5005910;28;19917;-86
2022/03/10 11:17:59;;;;;;;;;;;;;;;;;;5006493;28;20059;-88
2022/03/10 11:20:25;;;;;;;;;;;;;;;;;;5010645;28;19941;-88
2022/03/10 11:23:03;;;;;;;;;;;;;;;12.72;42.33;68180.97;5028164;28;19913;-89
2022/03/10 11:25:30;;;;;;;;;;;;;;;12.95;43.31;68207.13;5018541;28;20057;-90
2022/03/10 11:27:58;;;;;;;;;;;;;;;12.98;41.76;68209.97;4997383;28;19918;-86
2022/03/10 11:30:27;;;;;;;;;;;;;;;13.06;41.55;68219.63;4993488;28;19921;-87
2022/03/10 11:32:59;;;;;;;;;;;;;;;13.02;42.19;68214.50;4989554;28;19917;-86
2022/03/10 11:35:29;;;;;;;;;;;;;;;13.05;39.88;68223.81;5003392;28;19950;-87
2022/03/10 11:37:54;;;;;;;;;;;;;;;12.98;40.79;68210.53;4986999;28;20448;-86
2022/03/10 11:40:19;;;;;;;;;;;;;;;;;;5040792;28;19914;-86
2022/03/10 11:42:44;;;;;;;;;;;;;;;;;;5005251;28;19913;-86
2022/03/10 11:45:10;;;;;;;;;;;;;;;;;;4990115;28;19920;-87
2022/03/10 11:47:36;;;;;;;;;;;;;;;;;;5032967;28;19922;-86
2022/03/10 11:50:01;;;;;;;;;;;;;;;;;;5020027;28;19972;-85
2022/03/10 11:52:31;;;;;;;;;;;;;;;;;;5006933;28;20282;-87
2022/03/10 11:55:06;;;;;;;;;;;;;;;13.73;38.20;68294.13;5025637;28;20544;-88
2022/03/10 11:57:42;;;;;;;;;;;;;;;13.81;40.98;68297.31;5007385;28;19928;-86
2022/03/10 12:00:07;;;;;;;;;;;;;;;13.79;39.75;68299.84;5006705;28;19917;-88
2022/03/10 12:02:38;;;;;;;;;;;;;;;13.72;38.94;68298.34;5034976;28;19920;-87
2022/03/10 12:05:04;;;;;;;;;;;;;;;13.77;39.21;68298.69;5008777;28;19917;-87
2022/03/10 12:07:30;;;;;;;;;;;;;;;13.89;39.16;68311.19;5004973;28;19961;-88
2022/03/10 12:10:03;;;;;;;;;;;;;;;14.03;39.97;68327.13;5007975;28;19917;-85
2022/03/10 12:12:29;;;;;;;;;;;;;;;;;;5003403;28;19968;-86
2022/03/10 12:14:56;;;;;;;;;;;;;;;13.99;40.23;68327.94;5038308;28;19913;-88
2022/03/10 12:17:40;;;;;;;;;;;;;;;14.13;39.76;68335.28;4993774;28;19917;-86
2022/03/10 12:20:15;;;;;;;;;;;;;;;14.17;38.04;68343.06;4998302;28;20369;-88
2022/03/10 12:23:01;;;;;;;;;;;;;;;14.16;38.11;68339.25;4990325;28;19914;-86
2022/03/10 12:25:27;;;;;;;;;;;;;;;14.22;39.48;68345.50;5004369;28;20530;-88
2022/03/10 12:27:56;;;;;;;;;;;;;;;14.43;38.03;68371.53;5001147;28;19922;-88
2022/03/10 12:30:22;;;;;;;;;;;;;;;14.45;37.28;68373.81;5029587;28;19972;-88
2022/03/10 12:32:54;;;;;;;;;;;;;;;14.48;38.95;68377.22;4998915;28;19968;-87
2022/03/10 12:35:25;;;;;;;;;;;;;;;14.74;38.71;68406.25;5036090;28;20012;-88
2022/03/10 12:37:51;;;;;;;;;;;;;;;14.80;35.71;68412.53;4997018;28;19929;-88
2022/03/10 12:40:17;;;;;;;;;;;;;;;14.95;40.13;68429.03;5016148;28;19924;-86
2022/03/10 12:42:44;;;;;;;;;;;;;;;15.00;38.58;68435.31;5028618;28;19924;-86
2022/03/10 12:45:10;;;;;;;;;;;;;;;15.06;38.00;68447.50;4998042;28;19949;-86
2022/03/10 12:47:38;;;;;;;;;;;;;;;15.24;39.40;68462.06;5035527;28;19914;-86
2022/03/10 12:50:03;;;;;;;;;;;;;;;15.41;38.57;68480.84;5024706;28;19924;-88
2022/03/10 12:52:29;;;;;;;;;;;;;;;15.55;38.95;68496.81;5024908;28;19913;-88
2022/03/10 12:54:56;;;;;;;;;;;;;;;15.64;40.55;68503.25;5008197;28;19975;-87
2022/03/10 12:57:21;;;;;;;;;;;;;;;;;;4990953;28;19920;-87
2022/03/10 12:59:48;;;;;;;;;;;;;;;15.67;37.20;68507.22;5019955;28;19925;-87
2022/03/10 13:02:13;;;;;;;;;;;;;;;15.79;35.32;68523.03;5010067;28;19921;-86
2022/03/10 13:04:48;;;;;;;;;;;;;;;15.80;36.82;68524.19;5013248;28;19914;-87
2022/03/10 13:07:15;;;;;;;;;;;;;;;15.86;35.52;68530.44;4990084;28;19944;-87
2022/03/10 13:09:40;;;;;;;;;;;;;;;16.00;39.04;68543.72;5001810;28;19917;-87
2022/03/10 13:12:05;;;;;;;;;;;;;;;;;;5008042;28;19968;-86
2022/03/10 13:14:31;;;;;;;;;;;;;;;16.29;39.27;68575.63;4995206;28;19932;-86
2022/03/10 13:16:56;;;;;;;;;;;;;;;16.25;37.26;68574.31;5006204;28;19944;-87
2022/03/10 13:19:26;;;;;;;;;;;;;;;16.31;36.62;68581.16;5018467;28;19921;-87
2022/03/10 13:22:00;;;;;;;;;;;;;;;16.51;38.55;68602.81;5020421;28;19914;-87